Accueil
METAR-TAF:

METAR-TAF

Aéroports :

Acapulco, Mexique

Aéroport international général Juan N. Álvarez

latitude: 16-46N, longitude: 099-45W, altitude: 5 m

Observation

Le bulletin a été fait il y a 50 minutes, à 17:42 UTC
Vent 4 kt de sud/sud-ouest
Température 29°C
Humidité 58%
Pression 1016 hPa
Visibilité: 11.3 km
Ciel clair

METAR: MMAA 231742Z 20004KT 7SM SKC 29/20 A3001 RMK SLP155 57017 951 HZY

Heure: 12:32 (18:32 UTC)

Prévision

Le bulletin a été fait il y a 2 heures et 3 minutes, à 16:29 UTC
Prévision valable du 23 à 18 UTC au 24 à 24 UTC
Vent 10 kt de sud-ouest
Visibilité: 10 km
Ciel clair
A partir de 24 à 0300 UTC
Vent kt de nord
Visibilité: 10 km
Ciel clair
A partir de 24 à 1800 UTC
Vent 10 kt de ouest/sud-ouest
Visibilité: 10 km
Ciel clair

TAF: MMAA 231629Z 2318/2424 23010KT P6SM SKC TX30/2320Z TN22/2412Z FM240300 00000KT P6SM SKC FM241800 24010KT P6SM SKC

Observations et prévisions météorologiques de plus de 4000 aéroports (messages METAR et TAF).

Les stations disponibles sont représentées par des disques jaunes et rouges sur la carte.

Passer la souris dessus pour voir le nom de la station.

Cliquer dessus pour voir les observations et prévisions météorologiques.

Pour changer de carte: cliquez sur les boutons verts avec une croix noire pour zoomer, sur le bouton vert avec un tiret pour effectuer un zoom arrière, ou sur les flèches vertes pour les cartes adjacentes.


METAR-TAF: